Time;durP1;ratioP1;P1;durP2;ratioP2;P2;SDS_P1;SDS_P2;PMS_P1;PMS_P2;Temp;Humidity;BMP_temperature;BMP_pressure;BME280_temperature;BME280_humidity;BME280_pressure;Samples;Min_cycle;Max_cycle;Signal;HPM_P1;HPM_P2
2021/10/26 00:02:02;;;;;;;10.68;5.85;;;;;;;;;;4978239;28;20030;-83
2021/10/26 00:04:28;;;;;;;11.60;6.70;;;;;;;;;;4993226;28;20467;-83
2021/10/26 00:06:54;;;;;;;10.63;5.80;;;;;;;;;;4981066;28;20019;-83
2021/10/26 00:09:20;;;;;;;11.23;6.40;;;;;;;;;;4996173;28;20390;-84
2021/10/26 00:11:46;;;;;;;12.95;6.78;;;;;;;;;;4996671;28;20545;-84
2021/10/26 00:14:12;;;;;;;10.70;6.88;;;;;;;;;;4979396;28;20034;-84
2021/10/26 00:16:38;;;;;;;13.55;6.80;;;;;;;;;;4992438;28;20054;-84
2021/10/26 00:19:04;;;;;;;12.07;7.40;;;;;;;;;;4997312;28;20467;-84
2021/10/26 00:21:30;;;;;;;14.68;7.75;;;;;;;;;;4992732;28;20401;-84
2021/10/26 00:23:56;;;;;;;12.30;6.90;;;;;;;;;;4987892;28;20031;-84
2021/10/26 00:26:22;;;;;;;12.75;7.38;;;;;;;;;;4979929;28;20046;-84
2021/10/26 00:28:49;;;;;;;13.32;7.25;;;;;;;;;;4976731;28;20050;-84
2021/10/26 00:31:15;;;;;;;12.23;7.50;;;;;;;;;;4981262;28;20479;-84
2021/10/26 00:33:41;;;;;;;15.18;6.38;;;;;;;;;;4996045;28;20027;-84
2021/10/26 00:36:07;;;;;;;13.27;6.50;;;;;;;;;;4992931;28;20517;-84
2021/10/26 00:38:33;;;;;;;15.80;7.22;;;;;;;;;;4996410;28;20117;-84
2021/10/26 00:40:59;;;;;;;11.07;6.47;;;;;;;;;;4991329;28;20054;-84
2021/10/26 00:43:25;;;;;;;12.05;6.43;;;;;;;;;;4997624;28;20037;-84
2021/10/26 00:45:52;;;;;;;11.23;6.05;;;;;;;;;;4996036;28;20385;-84
2021/10/26 00:48:18;;;;;;;13.73;7.22;;;;;;;;;;4997060;28;20022;-84
2021/10/26 00:50:44;;;;;;;10.65;6.45;;;;;;;;;;4995836;28;20025;-84
2021/10/26 00:53:10;;;;;;;13.38;7.57;;;;;;;;;;4996329;28;20018;-84
2021/10/26 00:55:36;;;;;;;11.80;7.18;;;;;;;;;;4978978;28;20117;-84
2021/10/26 00:58:02;;;;;;;14.52;7.35;;;;;;;;;;4987331;28;20038;-84
2021/10/26 01:00:28;;;;;;;12.25;7.00;;;;;;;;;;4996338;28;20110;-83
2021/10/26 01:02:54;;;;;;;18.02;8.27;;;;;;;;;;4994754;28;20065;-83
2021/10/26 01:05:20;;;;;;;11.57;6.65;;;;;;;;;;4978058;28;20486;-83
2021/10/26 01:07:46;;;;;;;12.52;7.15;;;;;;;;;;4977783;28;20130;-83
2021/10/26 01:10:12;;;;;;;13.63;7.40;;;;;;;;;;4976031;28;20037;-83
2021/10/26 01:12:38;;;;;;;10.23;5.97;;;;;;;;;;4995898;28;20093;-83
2021/10/26 01:15:06;;;;;;;10.23;6.57;;;;;;;;;;4978420;28;20037;-83
2021/10/26 01:17:32;;;;;;;15.00;7.55;;;;;;;;;;4983375;28;20027;-83
2021/10/26 01:19:58;;;;;;;15.23;7.70;;;;;;;;;;4978190;28;20092;-83
2021/10/26 01:22:27;;;;;;;14.98;7.20;;;;;;;;;;4977777;28;20030;-83
2021/10/26 01:24:54;;;;;;;13.10;7.20;;;;;;;;;;4977721;28;20038;-83
2021/10/26 01:27:21;;;;;;;10.73;6.53;;;;;;;;;;4977798;28;20046;-83
2021/10/26 01:29:47;;;;;;;13.38;7.32;;;;;;;;;;4994826;28;20026;-83
2021/10/26 01:32:14;;;;;;;13.95;7.65;;;;;;;;;;4969161;28;20026;-83
2021/10/26 01:34:40;;;;;;;9.57;6.68;;;;;;;;;;4991311;28;20025;-83
2021/10/26 01:37:07;;;;;;;12.25;6.57;;;;;;;;;;4993146;28;20038;-83
2021/10/26 01:39:34;;;;;;;13.48;6.88;;;;;;;;;;4994771;28;20382;-83
2021/10/26 01:42:00;;;;;;;11.70;7.25;;;;;;;;;;4994433;28;20069;-83
2021/10/26 01:44:27;;;;;;;11.23;6.75;;;;;;;;;;4977377;28;20942;-83
2021/10/26 01:46:53;;;;;;;12.23;6.10;;;;;;;;;;4977748;28;20076;-83
2021/10/26 01:49:20;;;;;;;11.32;6.38;;;;;;;;;;4993738;28;20545;-83
2021/10/26 01:51:46;;;;;;;11.77;6.43;;;;;;;;;;4976732;28;20164;-83
2021/10/26 01:54:12;;;;;;;9.93;6.22;;;;;;;;;;4997935;28;20109;-83
2021/10/26 01:56:38;;;;;;;13.32;6.05;;;;;;;;;;4993360;28;20026;-83
2021/10/26 01:59:04;;;;;;;11.13;6.65;;;;;;;;;;4993379;28;20120;-83
2021/10/26 02:01:30;;;;;;;10.80;6.15;;;;;;;;;;4977445;28;20036;-83
2021/10/26 02:03:56;;;;;;;13.05;7.05;;;;;;;;;;4977361;28;20165;-83
2021/10/26 02:06:22;;;;;;;11.27;5.90;;;;;;;;;;4991503;28;20086;-83
2021/10/26 02:08:48;;;;;;;10.32;5.75;;;;;;;;;;4994473;28;20379;-83
2021/10/26 02:11:15;;;;;;;14.30;6.45;;;;;;;;;;4975993;28;20029;-83
2021/10/26 02:13:41;;;;;;;10.02;5.90;;;;;;;;;;4982698;28;20568;-83
2021/10/26 02:16:07;;;;;;;10.68;6.43;;;;;;;;;;4989042;28;20019;-83
2021/10/26 02:18:33;;;;;;;11.82;6.13;;;;;;;;;;4976920;28;20386;-83
2021/10/26 02:21:00;;;;;;;12.68;6.18;;;;;;;;;;4994189;28;20022;-83
2021/10/26 02:23:26;;;;;;;10.75;6.28;;;;;;;;;;4985957;28;20124;-83
2021/10/26 02:25:52;;;;;;;14.32;6.60;;;;;;;;;;4996866;28;20137;-83
2021/10/26 02:28:18;;;;;;;10.57;6.40;;;;;;;;;;4973431;28;20638;-83
2021/10/26 02:30:44;;;;;;;12.50;7.40;;;;;;;;;;4990283;28;20023;-83
2021/10/26 02:33:11;;;;;;;11.43;6.65;;;;;;;;;;4972802;28;20109;-83
2021/10/26 02:35:37;;;;;;;10.02;6.15;;;;;;;;;;4973561;28;20065;-83
2021/10/26 02:38:03;;;;;;;10.82;6.03;;;;;;;;;;4973192;28;20026;-82
2021/10/26 02:40:29;;;;;;;16.00;7.05;;;;;;;;;;4960053;28;20036;-82
2021/10/26 02:42:55;;;;;;;11.15;5.85;;;;;;;;;;4961756;28;20122;-82
2021/10/26 02:45:26;;;;;;;9.95;6.10;;;;;;;;;;4966573;28;20032;-82
2021/10/26 02:47:52;;;;;;;11.25;6.38;;;;;;;;;;4963132;28;20390;-82
2021/10/26 02:50:19;;;;;;;11.32;6.78;;;;;;;;;;4973553;28;20077;-82
2021/10/26 02:52:45;;;;;;;7.28;5.53;;;;;;;;;;4973345;28;20019;-82
2021/10/26 02:55:11;;;;;;;10.80;5.95;;;;;;;;;;4988571;28;20086;-82
2021/10/26 02:57:37;;;;;;;10.15;6.38;;;;;;;;;;4974074;28;20031;-82
2021/10/26 03:00:05;;;;;;;8.40;5.45;;;;;;;;;;4973647;28;20062;-82
2021/10/26 03:02:31;;;;;;;13.48;6.78;;;;;;;;;;4973216;28;20113;-82
2021/10/26 03:04:57;;;;;;;10.13;6.10;;;;;;;;;;4974498;28;20455;-82
2021/10/26 03:07:23;;;;;;;11.98;5.90;;;;;;;;;;4973288;28;20059;-82
2021/10/26 03:09:49;;;;;;;9.77;5.72;;;;;;;;;;4973296;28;20033;-82
2021/10/26 03:12:15;;;;;;;12.27;6.28;;;;;;;;;;4972726;28;20026;-82
2021/10/26 03:14:41;;;;;;;9.48;5.32;;;;;;;;;;4973336;28;20023;-82
2021/10/26 03:17:07;;;;;;;10.93;5.88;;;;;;;;;;4973697;28;20614;-82
2021/10/26 03:19:33;;;;;;;11.65;5.95;;;;;;;;;;4976933;28;20100;-82
2021/10/26 03:21:59;;;;;;;11.82;5.47;;;;;;;;;;4976435;28;20050;-82
2021/10/26 03:24:25;;;;;;;9.52;5.95;;;;;;;;;;4992053;28;20403;-82
2021/10/26 03:26:51;;;;;;;12.65;6.85;;;;;;;;;;4989103;28;20053;-82
2021/10/26 03:29:17;;;;;;;9.68;5.80;;;;;;;;;;4986344;28;20666;-82
2021/10/26 03:31:43;;;;;;;11.52;6.60;;;;;;;;;;4982356;28;20031;-82
2021/10/26 03:34:09;;;;;;;8.55;5.53;;;;;;;;;;4985662;28;20026;-82
2021/10/26 03:36:35;;;;;;;10.80;5.60;;;;;;;;;;4981556;28;20037;-82
2021/10/26 03:39:01;;;;;;;11.90;6.10;;;;;;;;;;4976506;28;20035;-82
2021/10/26 03:41:28;;;;;;;9.38;6.07;;;;;;;;;;4982390;28;20080;-82
2021/10/26 03:43:54;;;;;;;16.67;6.18;;;;;;;;;;4977128;28;20038;-81
2021/10/26 03:46:20;;;;;;;12.65;6.68;;;;;;;;;;4994831;28;20425;-82
2021/10/26 03:48:46;;;;;;;10.65;5.78;;;;;;;;;;4995590;28;20027;-82
2021/10/26 03:51:12;;;;;;;10.75;5.68;;;;;;;;;;4996725;28;20077;-82
2021/10/26 03:53:38;;;;;;;9.95;6.07;;;;;;;;;;4995827;28;20047;-82
2021/10/26 03:56:04;;;;;;;12.18;6.32;;;;;;;;;;4996732;28;20034;-82
2021/10/26 03:58:32;;;;;;;9.82;6.13;;;;;;;;;;4994875;28;20030;-82
2021/10/26 04:00:58;;;;;;;10.45;6.03;;;;;;;;;;4995183;28;20033;-82
2021/10/26 04:03:24;;;;;;;7.97;4.75;;;;;;;;;;4985503;28;20031;-82
2021/10/26 04:10:52;;;;;;;10.13;5.55;;;;;;;;;;4984275;28;20943;-83
2021/10/26 04:13:20;;;;;;;9.98;5.95;;;;;;;;;;4983592;28;20485;-84
2021/10/26 04:15:46;;;;;;;9.57;5.78;;;;;;;;;;4971864;28;20030;-84
2021/10/26 04:18:12;;;;;;;7.90;4.97;;;;;;;;;;4995569;28;20030;-85
2021/10/26 04:20:38;;;;;;;13.02;5.65;;;;;;;;;;4980506;28;20457;-83
2021/10/26 04:23:04;;;;;;;9.45;5.32;;;;;;;;;;4976911;28;20066;-83
2021/10/26 04:25:32;;;;;;;10.60;5.82;;;;;;;;;;4977234;28;20455;-83
2021/10/26 04:27:58;;;;;;;8.75;5.63;;;;;;;;;;4976500;28;20398;-84
2021/10/26 04:30:24;;;;;;;9.88;5.80;;;;;;;;;;4993245;28;20504;-84
2021/10/26 04:32:51;;;;;;;9.05;5.10;;;;;;;;;;4994969;28;20112;-85
2021/10/26 04:35:17;;;;;;;10.38;5.45;;;;;;;;;;4993986;28;20378;-84
2021/10/26 04:37:43;;;;;;;11.07;5.93;;;;;;;;;;4995745;28;20023;-84
2021/10/26 04:40:09;;;;;;;9.13;5.78;;;;;;;;;;4978569;28;20034;-85
2021/10/26 04:42:36;;;;;;;10.13;5.75;;;;;;;;;;4995134;28;20375;-84
2021/10/26 04:45:02;;;;;;;9.70;4.95;;;;;;;;;;4994802;28;20186;-84
2021/10/26 04:47:28;;;;;;;11.98;5.95;;;;;;;;;;4991588;28;20098;-83
2021/10/26 04:49:54;;;;;;;8.90;5.32;;;;;;;;;;4995482;28;20058;-85
2021/10/26 04:52:20;;;;;;;10.48;5.63;;;;;;;;;;4993209;28;20117;-85
2021/10/26 04:54:47;;;;;;;11.15;7.45;;;;;;;;;;4990888;28;20484;-84
2021/10/26 04:57:13;;;;;;;10.63;6.45;;;;;;;;;;4985456;28;20089;-85
2021/10/26 04:59:39;;;;;;;9.23;5.68;;;;;;;;;;4994031;28;20030;-84
2021/10/26 05:02:05;;;;;;;8.90;5.43;;;;;;;;;;4986569;28;20026;-84
2021/10/26 05:04:31;;;;;;;8.63;5.15;;;;;;;;;;4994979;28;20029;-84
2021/10/26 05:06:57;;;;;;;9.05;5.32;;;;;;;;;;4994480;28;20038;-85
2021/10/26 05:09:23;;;;;;;10.07;6.15;;;;;;;;;;4995089;28;20041;-82
2021/10/26 05:12:19;;;;;;;10.38;5.63;;;;;;;;;;4978373;28;20470;-85
2021/10/26 05:14:45;;;;;;;11.38;5.65;;;;;;;;;;4977885;28;20030;-83
2021/10/26 05:17:17;;;;;;;7.63;5.10;;;;;;;;;;4978298;28;20088;-85
2021/10/26 05:19:44;;;;;;;12.35;5.65;;;;;;;;;;4975314;28;20022;-85
2021/10/26 05:22:12;;;;;;;9.82;5.50;;;;;;;;;;4993887;28;20030;-86
2021/10/26 05:24:38;;;;;;;10.82;5.43;;;;;;;;;;4995304;28;20022;-84
2021/10/26 05:27:04;;;;;;;9.05;5.20;;;;;;;;;;4994991;28;20053;-84
2021/10/26 05:29:31;;;;;;;9.90;4.80;;;;;;;;;;4993989;28;20117;-84
2021/10/26 05:31:57;;;;;;;8.52;4.82;;;;;;;;;;4992844;28;20117;-84
2021/10/26 05:34:24;;;;;;;10.00;5.20;;;;;;;;;;4985685;28;20114;-84
2021/10/26 05:36:50;;;;;;;8.70;5.13;;;;;;;;;;4977768;28;20034;-83
2021/10/26 05:39:16;;;;;;;10.82;5.85;;;;;;;;;;4991981;28;20026;-83
2021/10/26 05:41:42;;;;;;;11.73;5.20;;;;;;;;;;4972485;28;20037;-84
2021/10/26 05:44:08;;;;;;;9.70;5.20;;;;;;;;;;4993938;28;20031;-84
2021/10/26 05:46:36;;;;;;;11.45;5.38;;;;;;;;;;4996768;28;20094;-83
2021/10/26 05:49:02;;;;;;;8.88;5.78;;;;;;;;;;4993897;28;20026;-85
2021/10/26 05:51:28;;;;;;;9.80;5.07;;;;;;;;;;4995515;28;20062;-84
2021/10/26 05:53:54;;;;;;;14.25;5.45;;;;;;;;;;4994331;28;20050;-85
2021/10/26 05:56:20;;;;;;;9.68;5.55;;;;;;;;;;4998237;28;20117;-86
2021/10/26 05:58:46;;;;;;;11.60;5.35;;;;;;;;;;4976911;28;20034;-85
2021/10/26 06:01:12;;;;;;;9.13;5.18;;;;;;;;;;4976465;28;20023;-85
2021/10/26 06:03:38;;;;;;;9.68;5.32;;;;;;;;;;4993011;28;20037;-85
2021/10/26 06:06:04;;;;;;;8.77;4.93;;;;;;;;;;4976856;28;20065;-85
2021/10/26 06:08:31;;;;;;;9.20;5.13;;;;;;;;;;4996548;28;20386;-85
2021/10/26 06:11:02;;;;;;;9.07;5.22;;;;;;;;;;4992763;28;20030;-85
2021/10/26 06:13:31;;;;;;;7.97;4.72;;;;;;;;;;4984090;28;20019;-85
2021/10/26 06:15:57;;;;;;;13.98;5.60;;;;;;;;;;4993535;28;20037;-85
2021/10/26 06:18:23;;;;;;;7.75;4.88;;;;;;;;;;4976453;28;20046;-85
2021/10/26 06:20:49;;;;;;;11.25;4.85;;;;;;;;;;4995261;28;20022;-85
2021/10/26 06:23:16;;;;;;;8.35;5.07;;;;;;;;;;4991207;28;20080;-85
2021/10/26 06:25:42;;;;;;;10.20;5.22;;;;;;;;;;4996786;28;20138;-85
2021/10/26 06:28:08;;;;;;;8.63;5.22;;;;;;;;;;4957652;28;20442;-85
2021/10/26 06:30:34;;;;;;;8.20;4.78;;;;;;;;;;4973796;28;20023;-85
2021/10/26 06:33:00;;;;;;;8.50;5.53;;;;;;;;;;4973648;28;20019;-85
2021/10/26 06:35:26;;;;;;;7.50;4.78;;;;;;;;;;4973549;28;20034;-85
2021/10/26 06:37:52;;;;;;;8.70;4.90;;;;;;;;;;4973171;28;20035;-85
2021/10/26 06:40:18;;;;;;;10.68;5.05;;;;;;;;;;4968903;28;20041;-85
2021/10/26 06:42:44;;;;;;;8.57;5.20;;;;;;;;;;4970565;28;20020;-85
2021/10/26 06:45:10;;;;;;;8.82;5.00;;;;;;;;;;4977056;28;20122;-86
2021/10/26 06:47:37;;;;;;;7.25;4.75;;;;;;;;;;4968474;28;20050;-86
2021/10/26 06:50:04;;;;;;;9.23;4.78;;;;;;;;;;4972561;28;20031;-85
2021/10/26 06:52:30;;;;;;;8.43;5.07;;;;;;;;;;4967578;28;20019;-85
2021/10/26 06:54:56;;;;;;;10.65;4.82;;;;;;;;;;4976975;28;20112;-86
2021/10/26 06:57:24;;;;;;;7.70;4.10;;;;;;;;;;4980109;28;20565;-84
2021/10/26 06:59:50;;;;;;;8.23;4.75;;;;;;;;;;4990616;28;20026;-85
2021/10/26 07:02:16;;;;;;;8.95;4.47;;;;;;;;;;4989166;28;20101;-84
2021/10/26 07:04:42;;;;;;;9.48;5.00;;;;;;;;;;4977382;28;20461;-85
2021/10/26 07:07:08;;;;;;;7.82;4.60;;;;;;;;;;4989846;28;20386;-85
2021/10/26 07:09:34;;;;;;;9.07;4.82;;;;;;;;;;4978601;28;20038;-85
2021/10/26 07:12:00;;;;;;;10.05;5.10;;;;;;;;;;4978377;28;20031;-85
2021/10/26 07:14:26;;;;;;;9.90;4.78;;;;;;;;;;4994455;28;20041;-85
2021/10/26 07:16:52;;;;;;;8.73;5.45;;;;;;;;;;4977519;28;20113;-85
2021/10/26 07:19:18;;;;;;;8.40;5.28;;;;;;;;;;4993638;28;20022;-85
2021/10/26 07:21:44;;;;;;;8.90;5.10;;;;;;;;;;4976783;28;20134;-85
2021/10/26 07:24:12;;;;;;;9.77;5.38;;;;;;;;;;4991843;28;20078;-85
2021/10/26 07:26:39;;;;;;;10.43;5.65;;;;;;;;;;4973600;28;20035;-84
2021/10/26 07:29:05;;;;;;;10.90;5.75;;;;;;;;;;4973942;28;20081;-85
2021/10/26 07:31:31;;;;;;;11.60;5.55;;;;;;;;;;4982141;28;20118;-84
2021/10/26 07:33:59;;;;;;;10.23;4.95;;;;;;;;;;4981650;28;20470;-83
2021/10/26 07:36:30;;;;;;;11.95;6.07;;;;;;;;;;4989817;28;20031;-85
2021/10/26 07:39:00;;;;;;;12.60;6.45;;;;;;;;;;4975729;28;20035;-85
2021/10/26 07:41:26;;;;;;;11.18;5.40;;;;;;;;;;4977283;28;20393;-85
2021/10/26 07:43:52;;;;;;;9.88;5.30;;;;;;;;;;4976112;28;20558;-85
2021/10/26 07:46:19;;;;;;;12.63;6.15;;;;;;;;;;4989438;28;20151;-86
2021/10/26 07:48:45;;;;;;;13.85;6.70;;;;;;;;;;4989201;28;20019;-87
2021/10/26 07:51:11;;;;;;;10.35;6.03;;;;;;;;;;4987808;28;20471;-86
2021/10/26 07:53:37;;;;;;;10.00;6.20;;;;;;;;;;4973898;28;20034;-86
2021/10/26 07:56:05;;;;;;;10.43;5.97;;;;;;;;;;4974474;28;20395;-86
2021/10/26 07:58:31;;;;;;;12.82;6.85;;;;;;;;;;4977779;28;20034;-86
2021/10/26 08:00:57;;;;;;;10.05;6.10;;;;;;;;;;4970210;28;20490;-86
2021/10/26 08:03:23;;;;;;;10.68;5.50;;;;;;;;;;4976793;28;20063;-84
2021/10/26 08:05:50;;;;;;;11.02;6.07;;;;;;;;;;4984104;28;20078;-84
2021/10/26 08:08:17;;;;;;;13.35;6.47;;;;;;;;;;4987403;28;20064;-85
2021/10/26 08:10:44;;;;;;;8.57;5.70;;;;;;;;;;4976253;28;20022;-85
2021/10/26 08:13:10;;;;;;;11.55;6.20;;;;;;;;;;4992943;28;20143;-85
2021/10/26 08:15:36;;;;;;;10.45;6.03;;;;;;;;;;4992152;28;20037;-85
2021/10/26 08:18:02;;;;;;;12.45;7.07;;;;;;;;;;4976480;28;20037;-85
2021/10/26 08:20:29;;;;;;;12.32;6.07;;;;;;;;;;4977766;28;20443;-85
2021/10/26 08:22:55;;;;;;;14.45;7.00;;;;;;;;;;4976166;28;20121;-85
2021/10/26 08:25:30;;;;;;;13.75;6.20;;;;;;;;;;4970277;28;20085;-85
2021/10/26 08:27:57;;;;;;;13.77;6.80;;;;;;;;;;4990085;28;20117;-85
2021/10/26 08:30:40;;;;;;;12.80;6.65;;;;;;;;;;4960164;28;20415;-85
2021/10/26 08:33:24;;;;;;;13.40;6.30;;;;;;;;;;4991890;28;20529;-85
2021/10/26 08:35:50;;;;;;;13.32;7.00;;;;;;;;;;4995392;28;20089;-85
2021/10/26 08:38:16;;;;;;;14.52;7.13;;;;;;;;;;4995686;28;20025;-85
2021/10/26 08:40:49;;;;;;;15.90;7.63;;;;;;;;;;4994979;28;20058;-85
2021/10/26 08:43:22;;;;;;;14.45;7.25;;;;;;;;;;4995112;28;20037;-85
2021/10/26 08:45:49;;;;;;;15.18;7.32;;;;;;;;;;4995681;28;20022;-85
2021/10/26 08:48:25;;;;;;;15.75;6.82;;;;;;;;;;4997157;28;20485;-85
2021/10/26 08:50:56;;;;;;;14.60;7.53;;;;;;;;;;4978034;28;20121;-85
2021/10/26 08:53:23;;;;;;;15.68;8.23;;;;;;;;;;4995218;28;20049;-85
2021/10/26 08:55:57;;;;;;;18.20;7.18;;;;;;;;;;4981514;28;20027;-85
2021/10/26 08:58:24;;;;;;;13.32;7.15;;;;;;;;;;4999611;28;20028;-85
2021/10/26 09:00:50;;;;;;;14.98;7.43;;;;;;;;;;5008244;28;20074;-85
2021/10/26 09:03:18;;;;;;;15.20;7.63;;;;;;;;;;5002309;28;20607;-85
2021/10/26 09:05:47;;;;;;;13.45;6.60;;;;;;;;;;5001711;28;20061;-85
2021/10/26 09:08:13;;;;;;;11.82;6.10;;;;;;;;;;4991851;28;20019;-85
2021/10/26 09:10:41;;;;;;;13.30;6.82;;;;;;;;;;4994507;28;20536;-85
2021/10/26 09:18:47;;;;;;;9.77;5.70;;;;;;;;;;4985614;28;20244;-84
2021/10/26 09:21:27;;;;;;;12.35;6.70;;;;;;;;;;4979205;28;20094;-84
2021/10/26 09:23:56;;;;;;;14.35;6.43;;;;;;;;;;4993628;28;20073;-83
2021/10/26 09:26:22;;;;;;;15.82;6.07;;;;;;;;;;4991052;28;20043;-84
2021/10/26 09:28:50;;;;;;;16.83;6.35;;;;;;;;;;4987717;28;20475;-84
2021/10/26 09:31:23;;;;;;;9.73;6.13;;;;;;;;;;4987349;28;20026;-80
2021/10/26 09:33:57;;;;;;;10.30;5.43;;;;;;;;;;5002155;28;20026;-79
2021/10/26 09:36:33;;;;;;;9.70;5.85;;;;;;;;;;5007681;28;20026;-79
2021/10/26 09:39:05;;;;;;;12.57;5.18;;;;;;;;;;4988531;28;20018;-78
2021/10/26 09:41:36;;;;;;;9.18;5.00;;;;;;;;;;4975585;28;20042;-78
2021/10/26 09:44:09;;;;;;;11.32;4.95;;;;;;;;;;4995844;28;20435;-78
2021/10/26 09:46:35;;;;;;;11.98;4.88;;;;;;;;;;5008629;28;20084;-79
2021/10/26 09:49:01;;;;;;;9.70;4.60;;;;;;;;;;5009457;28;20030;-79
2021/10/26 09:51:29;;;;;;;8.93;4.65;;;;;;;;;;4999305;28;20033;-79
2021/10/26 09:53:57;;;;;;;11.18;4.68;;;;;;;;;;4986657;28;20442;-79
2021/10/26 09:56:23;;;;;;;11.43;4.60;;;;;;;;;;4991306;28;20026;-79
2021/10/26 09:58:49;;;;;;;8.05;4.03;;;;;;;;;;4994593;28;20521;-79
2021/10/26 10:01:16;;;;;;;9.77;4.82;;;;;;;;;;4978829;28;20166;-79
2021/10/26 10:03:43;;;;;;;9.68;4.00;;;;;;;;;;4994445;28;20026;-79
2021/10/26 10:06:11;;;;;;;11.20;4.95;;;;;;;;;;4985883;28;20501;-80
2021/10/26 10:08:39;;;;;;;8.02;4.45;;;;;;;;;;4978063;28;20022;-79
2021/10/26 10:11:10;;;;;;;7.10;3.97;;;;;;;;;;4991814;28;20057;-80
2021/10/26 10:13:40;;;;;;;9.07;3.80;;;;;;;;;;4989931;28;20030;-81
2021/10/26 10:16:08;;;;;;;8.48;4.20;;;;;;;;;;4976944;28;20042;-80
2021/10/26 10:18:34;;;;;;;8.75;3.97;;;;;;;;;;4983580;28;20034;-80
2021/10/26 10:21:01;;;;;;;8.38;4.03;;;;;;;;;;4969336;28;20034;-79
2021/10/26 10:23:27;;;;;;;7.30;4.20;;;;;;;;;;4977198;28;20398;-85
2021/10/26 10:25:56;;;;;;;15.23;4.18;;;;;;;;;;4960761;28;20490;-85
2021/10/26 10:28:24;;;;;;;6.88;4.00;;;;;;;;;;4977262;28;20113;-86
2021/10/26 10:30:51;;;;;;;10.38;4.03;;;;;;;;;;4976803;28;20033;-86
2021/10/26 10:33:20;;;;;;;8.13;4.40;;;;;;;;;;4993511;28;20548;-86
2021/10/26 10:35:48;;;;;;;9.30;4.00;;;;;;;;;;4976646;28;20490;-85
2021/10/26 10:38:15;;;;;;;8.52;4.38;;;;;;;;;;4977398;28;20121;-86
2021/10/26 10:40:41;;;;;;;10.63;5.10;;;;;;;;;;4977063;28;20089;-79
2021/10/26 10:43:07;;;;;;;7.60;4.25;;;;;;;;;;4983950;28;20034;-79
2021/10/26 10:45:35;;;;;;;7.80;4.03;;;;;;;;;;4990438;28;20498;-79
2021/10/26 10:48:21;;;;;;;10.50;4.45;;;;;;;;;;4995985;28;20022;-79
2021/10/26 10:50:48;;;;;;;10.20;4.20;;;;;;;;;;4985338;28;20057;-79
2021/10/26 10:53:16;;;;;;;9.13;4.15;;;;;;;;;;4994491;28;20069;-79
2021/10/26 10:55:44;;;;;;;10.13;4.78;;;;;;;;;;4990205;28;20026;-80
2021/10/26 10:58:21;;;;;;;10.60;4.13;;;;;;;;;;4990020;28;20069;-79
2021/10/26 11:00:47;;;;;;;8.93;5.00;;;;;;;;;;4995307;28;20355;-79
2021/10/26 11:03:29;;;;;;;11.95;5.57;;;;;;;;;;4993130;28;20026;-79
2021/10/26 11:05:55;;;;;;;14.43;5.60;;;;;;;;;;4984949;28;20046;-79
2021/10/26 11:08:46;;;;;;;12.35;4.97;;;;;;;;;;4972368;28;20093;-84
2021/10/26 11:11:12;;;;;;;9.23;4.85;;;;;;;;;;4980603;28;20039;-85
2021/10/26 11:13:38;;;;;;;12.02;4.53;;;;;;;;;;5000091;28;20114;-84
2021/10/26 11:16:08;;;;;;;9.45;5.13;;;;;;;;;;4990780;28;20033;-84
2021/10/26 11:18:37;;;;;;;10.30;4.50;;;;;;;;;;5005385;28;20502;-84
2021/10/26 11:21:05;;;;;;;10.38;5.82;;;;;;;;;;4987364;28;20076;-84
2021/10/26 11:23:35;;;;;;;15.80;5.88;;;;;;;;;;4983963;28;20037;-85
2021/10/26 11:26:03;;;;;;;9.88;5.22;;;;;;;;;;5001384;28;20094;-85
2021/10/26 11:28:29;;;;;;;9.88;5.65;;;;;;;;;;4987319;28;20049;-85
2021/10/26 11:30:57;;;;;;;10.80;5.78;;;;;;;;;;4993486;28;20022;-85
2021/10/26 11:33:23;;;;;;;9.77;5.22;;;;;;;;;;4977116;28;20022;-85
2021/10/26 11:35:51;;;;;;;13.40;5.95;;;;;;;;;;4982154;28;20077;-85
2021/10/26 11:38:22;;;;;;;10.50;4.88;;;;;;;;;;4993948;28;20394;-85
2021/10/26 11:40:55;;;;;;;8.15;4.47;;;;;;;;;;4990144;28;20060;-83
2021/10/26 11:43:22;;;;;;;9.80;4.95;;;;;;;;;;4981226;28;20035;-83
2021/10/26 11:45:54;;;;;;;12.38;5.22;;;;;;;;;;4981986;28;20121;-83
2021/10/26 11:48:40;;;;;;;7.88;4.68;;;;;;;;;;5001298;28;20080;-83
2021/10/26 11:51:23;;;;;;;11.02;5.20;;;;;;;;;;4995173;28;20061;-83
2021/10/26 11:53:51;;;;;;;13.95;5.43;;;;;;;;;;4995397;28;20084;-83
2021/10/26 11:56:28;;;;;;;9.35;4.97;;;;;;;;;;5001189;28;20034;-83
2021/10/26 11:58:58;;;;;;;9.32;5.00;;;;;;;;;;4999856;28;20029;-83
2021/10/26 12:01:51;;;;;;;10.93;4.85;;;;;;;;;;5009571;28;20121;-83
2021/10/26 12:04:16;;;;;;;11.65;4.95;;;;;;;;;;4989280;28;20026;-82
2021/10/26 12:06:43;;;;;;;9.20;4.97;;;;;;;;;;5000849;28;20387;-82
2021/10/26 12:09:11;;;;;;;12.25;4.75;;;;;;;;;;4983213;28;20026;-82
2021/10/26 12:11:38;;;;;;;8.15;4.85;;;;;;;;;;4997266;28;20024;-82
2021/10/26 12:14:19;;;;;;;10.05;4.90;;;;;;;;;;4984225;28;20365;-81
2021/10/26 12:17:04;;;;;;;9.00;4.78;;;;;;;;;;4997884;28;20057;-82
2021/10/26 12:19:30;;;;;;;9.13;4.88;;;;;;;;;;4996360;28;20447;-82
2021/10/26 12:21:56;;;;;;;8.20;4.70;;;;;;;;;;4985970;28;20023;-82
2021/10/26 12:24:24;;;;;;;9.95;5.45;;;;;;;;;;4992716;28;20023;-82
2021/10/26 12:27:00;;;;;;;8.40;4.28;;;;;;;;;;4994471;28;20425;-82
2021/10/26 12:29:27;;;;;;;7.55;3.97;;;;;;;;;;4995634;28;20026;-82
2021/10/26 12:31:53;;;;;;;7.90;4.80;;;;;;;;;;4997258;28;20026;-82
2021/10/26 12:34:19;;;;;;;7.07;3.95;;;;;;;;;;4995543;28;20031;-82
2021/10/26 12:36:45;;;;;;;7.60;4.45;;;;;;;;;;4980085;28;20034;-84
2021/10/26 12:39:11;;;;;;;7.82;4.40;;;;;;;;;;5001551;28;20021;-82
2021/10/26 12:41:38;;;;;;;11.30;4.72;;;;;;;;;;5004471;28;20030;-83
2021/10/26 12:44:05;;;;;;;8.60;4.40;;;;;;;;;;4979412;28;20117;-82
2021/10/26 12:46:32;;;;;;;9.82;5.22;;;;;;;;;;4992619;28;20616;-82
2021/10/26 12:49:08;;;;;;;7.78;4.00;;;;;;;;;;4981809;28;20069;-83
2021/10/26 12:51:34;;;;;;;9.57;4.82;;;;;;;;;;4982213;28;20031;-82
2021/10/26 12:54:14;;;;;;;9.38;4.22;;;;;;;;;;4981385;28;20116;-83
2021/10/26 12:56:56;;;;;;;7.53;4.20;;;;;;;;;;4995909;28;20046;-84
2021/10/26 12:59:25;;;;;;;5.30;3.47;;;;;;;;;;5000868;28;20871;-83
2021/10/26 13:01:59;;;;;;;6.70;3.40;;;;;;;;;;4994294;28;20026;-84
2021/10/26 13:04:25;;;;;;;8.68;4.75;;;;;;;;;;5015318;28;20347;-83
2021/10/26 13:06:56;;;;;;;10.55;4.50;;;;;;;;;;4978749;28;20018;-84
2021/10/26 13:09:23;;;;;;;8.18;4.45;;;;;;;;;;4995158;28;20458;-83
2021/10/26 13:11:49;;;;;;;8.65;4.50;;;;;;;;;;4996456;28;20030;-83
2021/10/26 13:14:16;;;;;;;9.60;4.40;;;;;;;;;;4998445;28;20101;-83
2021/10/26 13:16:44;;;;;;;10.85;5.03;;;;;;;;;;5001635;28;20882;-83
2021/10/26 13:19:26;;;;;;;7.40;4.18;;;;;;;;;;4984331;28;20050;-82
2021/10/26 13:21:53;;;;;;;7.28;4.22;;;;;;;;;;4981574;28;20030;-83
2021/10/26 13:24:22;;;;;;;7.45;4.18;;;;;;;;;;4996729;28;20027;-83
2021/10/26 13:26:49;;;;;;;6.43;3.40;;;;;;;;;;5008667;28;20086;-82
2021/10/26 13:29:16;;;;;;;7.70;3.40;;;;;;;;;;5000508;28;20018;-83
2021/10/26 13:31:42;;;;;;;5.25;3.00;;;;;;;;;;4981827;28;20087;-83
2021/10/26 13:34:08;;;;;;;7.80;3.47;;;;;;;;;;4981762;28;20429;-83
2021/10/26 13:36:36;;;;;;;7.80;3.42;;;;;;;;;;4981333;28;20033;-83
2021/10/26 13:39:05;;;;;;;6.78;2.95;;;;;;;;;;4981465;28;20526;-85
2021/10/26 13:41:31;;;;;;;4.95;2.33;;;;;;;;;;4993367;28;20359;-84
2021/10/26 13:43:56;;;;;;;10.57;3.15;;;;;;;;;;4979063;28;20168;-83
2021/10/26 13:46:23;;;;;;;6.85;2.97;;;;;;;;;;4977605;28;20030;-83
2021/10/26 13:48:49;;;;;;;6.10;3.58;;;;;;;;;;4992315;28;20029;-82
2021/10/26 13:51:16;;;;;;;6.47;3.30;;;;;;;;;;4994463;28;20425;-83
2021/10/26 13:53:42;;;;;;;7.15;3.10;;;;;;;;;;4978927;28;20053;-83
2021/10/26 13:56:08;;;;;;;5.03;3.22;;;;;;;;;;4995956;28;20153;-82
2021/10/26 13:58:35;;;;;;;5.45;3.38;;;;;;;;;;4978546;28;20034;-82
2021/10/26 14:01:08;;;;;;;5.78;3.13;;;;;;;;;;4992925;28;20053;-82
2021/10/26 14:03:35;;;;;;;6.22;3.35;;;;;;;;;;5016297;28;20101;-82
2021/10/26 14:06:01;;;;;;;7.70;3.28;;;;;;;;;;4995456;28;20027;-82
2021/10/26 14:08:27;;;;;;;6.97;2.70;;;;;;;;;;4984618;28;20037;-83
2021/10/26 14:10:54;;;;;;;4.47;2.47;;;;;;;;;;4994185;28;20068;-83
2021/10/26 14:13:20;;;;;;;5.20;3.20;;;;;;;;;;4978144;28;20076;-83
2021/10/26 14:15:46;;;;;;;5.50;3.42;;;;;;;;;;4994130;28;20037;-83
2021/10/26 14:18:12;;;;;;;5.75;3.10;;;;;;;;;;4995070;28;20026;-83
2021/10/26 14:20:42;;;;;;;8.00;2.97;;;;;;;;;;5001853;28;20029;-83
2021/10/26 14:23:08;;;;;;;5.78;2.67;;;;;;;;;;5009704;28;20077;-83
2021/10/26 14:25:35;;;;;;;6.35;3.10;;;;;;;;;;4993938;28;20104;-83
2021/10/26 14:28:01;;;;;;;6.00;3.47;;;;;;;;;;4978253;28;20085;-83
2021/10/26 14:30:28;;;;;;;6.47;2.97;;;;;;;;;;4977591;28;20022;-83
2021/10/26 14:32:55;;;;;;;8.93;2.83;;;;;;;;;;4993153;28;20022;-84
2021/10/26 14:35:27;;;;;;;5.10;2.80;;;;;;;;;;4980591;28;20786;-83
2021/10/26 14:38:01;;;;;;;4.13;2.80;;;;;;;;;;4991218;28;20026;-83
2021/10/26 14:40:46;;;;;;;3.63;2.30;;;;;;;;;;4982853;28;20031;-82
2021/10/26 14:53:50;;;;;;;5.85;2.38;;;;;;;;;;4985627;28;20045;-85
2021/10/26 14:56:16;;;;;;;4.07;2.42;;;;;;;;;;4993138;28;20034;-82
2021/10/26 14:58:44;;;;;;;5.68;2.97;;;;;;;;;;4995174;28;20098;-83
2021/10/26 15:01:10;;;;;;;3.97;2.60;;;;;;;;;;4977717;28;20031;-83